sensor_id;sensor_type;location;lat;lon;timestamp;P1;durP1;ratioP1;P2;durP2;ratioP2
13197;SDS011;6664;52.514;13.440;2023-09-18T00:00:03;6.20;;;5.53;;
13197;SDS011;6664;52.514;13.440;2023-09-18T00:02:55;5.73;;;5.00;;
13197;SDS011;6664;52.514;13.440;2023-09-18T00:05:40;7.50;;;5.63;;
13197;SDS011;6664;52.514;13.440;2023-09-18T00:08:26;5.57;;;5.07;;
13197;SDS011;6664;52.514;13.440;2023-09-18T00:11:14;6.87;;;5.33;;
13197;SDS011;6664;52.514;13.440;2023-09-18T00:14:00;5.87;;;4.63;;
13197;SDS011;6664;52.514;13.440;2023-09-18T00:16:46;5.73;;;5.03;;
13197;SDS011;6664;52.514;13.440;2023-09-18T00:19:43;6.57;;;5.67;;
13197;SDS011;6664;52.514;13.440;2023-09-18T00:22:28;6.63;;;5.77;;
13197;SDS011;6664;52.514;13.440;2023-09-18T00:25:16;7.57;;;6.27;;
13197;SDS011;6664;52.514;13.440;2023-09-18T00:28:01;6.47;;;5.80;;
13197;SDS011;6664;52.514;13.440;2023-09-18T00:30:50;7.17;;;5.37;;
13197;SDS011;6664;52.514;13.440;2023-09-18T00:33:36;7.07;;;6.37;;
13197;SDS011;6664;52.514;13.440;2023-09-18T00:36:23;5.57;;;5.07;;
13197;SDS011;6664;52.514;13.440;2023-09-18T00:39:13;6.03;;;5.43;;
13197;SDS011;6664;52.514;13.440;2023-09-18T00:42:00;6.10;;;5.50;;
13197;SDS011;6664;52.514;13.440;2023-09-18T00:44:46;5.60;;;5.10;;
13197;SDS011;6664;52.514;13.440;2023-09-18T00:47:31;7.60;;;5.67;;
13197;SDS011;6664;52.514;13.440;2023-09-18T00:50:17;6.30;;;5.70;;
13197;SDS011;6664;52.514;13.440;2023-09-18T00:53:03;6.07;;;5.43;;
13197;SDS011;6664;52.514;13.440;2023-09-18T00:55:53;7.10;;;5.83;;
13197;SDS011;6664;52.514;13.440;2023-09-18T00:58:42;8.13;;;6.40;;
13197;SDS011;6664;52.514;13.440;2023-09-18T01:01:29;6.20;;;5.60;;
13197;SDS011;6664;52.514;13.440;2023-09-18T01:04:15;6.53;;;5.83;;
13197;SDS011;6664;52.514;13.440;2023-09-18T01:07:01;5.93;;;5.33;;
13197;SDS011;6664;52.514;13.440;2023-09-18T01:09:50;6.17;;;5.57;;
13197;SDS011;6664;52.514;13.440;2023-09-18T01:12:39;6.10;;;5.13;;
13197;SDS011;6664;52.514;13.440;2023-09-18T01:15:37;5.93;;;5.33;;
13197;SDS011;6664;52.514;13.440;2023-09-18T01:18:30;7.33;;;5.80;;
13197;SDS011;6664;52.514;13.440;2023-09-18T01:21:15;6.67;;;6.00;;
13197;SDS011;6664;52.514;13.440;2023-09-18T01:24:06;6.43;;;5.83;;
13197;SDS011;6664;52.514;13.440;2023-09-18T01:26:52;7.00;;;5.27;;
13197;SDS011;6664;52.514;13.440;2023-09-18T01:29:38;6.60;;;5.90;;
13197;SDS011;6664;52.514;13.440;2023-09-18T01:32:25;6.13;;;5.27;;
13197;SDS011;6664;52.514;13.440;2023-09-18T01:35:13;6.33;;;5.73;;
13197;SDS011;6664;52.514;13.440;2023-09-18T01:38:00;6.63;;;5.93;;
13197;SDS011;6664;52.514;13.440;2023-09-18T01:40:48;9.10;;;5.50;;
13197;SDS011;6664;52.514;13.440;2023-09-18T01:43:34;6.17;;;5.57;;
13197;SDS011;6664;52.514;13.440;2023-09-18T01:46:20;7.17;;;5.50;;
13197;SDS011;6664;52.514;13.440;2023-09-18T01:49:06;6.70;;;6.10;;
13197;SDS011;6664;52.514;13.440;2023-09-18T01:51:52;6.03;;;5.43;;
13197;SDS011;6664;52.514;13.440;2023-09-18T01:54:39;7.93;;;6.20;;
13197;SDS011;6664;52.514;13.440;2023-09-18T01:57:25;6.20;;;5.60;;
13197;SDS011;6664;52.514;13.440;2023-09-18T02:00:12;7.27;;;5.70;;
13197;SDS011;6664;52.514;13.440;2023-09-18T02:03:04;7.17;;;5.50;;
13197;SDS011;6664;52.514;13.440;2023-09-18T02:06:10;6.03;;;5.53;;
13197;SDS011;6664;52.514;13.440;2023-09-18T02:08:56;6.10;;;5.50;;
13197;SDS011;6664;52.514;13.440;2023-09-18T02:11:43;6.60;;;6.00;;
13197;SDS011;6664;52.514;13.440;2023-09-18T02:14:29;6.90;;;6.00;;
13197;SDS011;6664;52.514;13.440;2023-09-18T02:17:16;6.10;;;5.57;;
13197;SDS011;6664;52.514;13.440;2023-09-18T02:20:02;5.80;;;5.20;;
13197;SDS011;6664;52.514;13.440;2023-09-18T02:22:57;6.10;;;5.53;;
13197;SDS011;6664;52.514;13.440;2023-09-18T02:25:47;8.80;;;5.30;;
13197;SDS011;6664;52.514;13.440;2023-09-18T02:28:40;7.10;;;5.70;;
13197;SDS011;6664;52.514;13.440;2023-09-18T02:31:28;6.47;;;5.70;;
13197;SDS011;6664;52.514;13.440;2023-09-18T02:34:14;5.33;;;4.93;;
13197;SDS011;6664;52.514;13.440;2023-09-18T02:37:04;7.70;;;5.70;;
13197;SDS011;6664;52.514;13.440;2023-09-18T02:39:50;5.73;;;5.23;;
13197;SDS011;6664;52.514;13.440;2023-09-18T02:42:35;6.10;;;5.53;;
13197;SDS011;6664;52.514;13.440;2023-09-18T02:45:21;11.60;;;5.20;;
13197;SDS011;6664;52.514;13.440;2023-09-18T02:48:06;6.60;;;4.93;;
13197;SDS011;6664;52.514;13.440;2023-09-18T02:50:55;5.47;;;4.83;;
13197;SDS011;6664;52.514;13.440;2023-09-18T02:53:41;6.83;;;6.10;;
13197;SDS011;6664;52.514;13.440;2023-09-18T02:56:26;5.87;;;5.37;;
13197;SDS011;6664;52.514;13.440;2023-09-18T02:59:12;6.70;;;6.07;;
13197;SDS011;6664;52.514;13.440;2023-09-18T03:01:58;6.70;;;6.10;;
13197;SDS011;6664;52.514;13.440;2023-09-18T03:04:43;11.43;;;5.10;;
13197;SDS011;6664;52.514;13.440;2023-09-18T03:07:29;10.30;;;4.63;;
13197;SDS011;6664;52.514;13.440;2023-09-18T03:10:16;5.70;;;5.20;;
13197;SDS011;6664;52.514;13.440;2023-09-18T03:13:03;5.93;;;5.40;;
13197;SDS011;6664;52.514;13.440;2023-09-18T03:15:49;6.03;;;5.50;;
13197;SDS011;6664;52.514;13.440;2023-09-18T03:18:37;7.07;;;6.10;;
13197;SDS011;6664;52.514;13.440;2023-09-18T03:21:23;6.37;;;4.97;;
13197;SDS011;6664;52.514;13.440;2023-09-18T03:24:08;9.40;;;5.27;;
13197;SDS011;6664;52.514;13.440;2023-09-18T03:26:54;5.53;;;4.97;;
13197;SDS011;6664;52.514;13.440;2023-09-18T03:29:42;5.63;;;5.13;;
13197;SDS011;6664;52.514;13.440;2023-09-18T03:32:28;6.00;;;5.50;;
13197;SDS011;6664;52.514;13.440;2023-09-18T03:35:14;5.27;;;4.57;;
13197;SDS011;6664;52.514;13.440;2023-09-18T03:38:06;6.53;;;5.73;;
13197;SDS011;6664;52.514;13.440;2023-09-18T03:40:54;5.80;;;4.93;;
13197;SDS011;6664;52.514;13.440;2023-09-18T03:43:40;6.97;;;5.80;;
13197;SDS011;6664;52.514;13.440;2023-09-18T03:46:26;6.00;;;5.30;;
13197;SDS011;6664;52.514;13.440;2023-09-18T03:49:14;5.70;;;5.17;;
13197;SDS011;6664;52.514;13.440;2023-09-18T03:51:59;7.07;;;5.37;;
13197;SDS011;6664;52.514;13.440;2023-09-18T03:54:45;5.30;;;4.67;;
13197;SDS011;6664;52.514;13.440;2023-09-18T03:57:34;9.33;;;5.63;;
13197;SDS011;6664;52.514;13.440;2023-09-18T04:00:22;6.87;;;5.57;;
13197;SDS011;6664;52.514;13.440;2023-09-18T04:03:08;6.10;;;5.50;;
13197;SDS011;6664;52.514;13.440;2023-09-18T04:05:56;5.83;;;5.33;;
13197;SDS011;6664;52.514;13.440;2023-09-18T04:08:42;6.93;;;5.90;;
13197;SDS011;6664;52.514;13.440;2023-09-18T04:11:27;5.90;;;5.40;;
13197;SDS011;6664;52.514;13.440;2023-09-18T04:14:17;6.50;;;5.47;;
13197;SDS011;6664;52.514;13.440;2023-09-18T04:17:02;6.33;;;5.70;;
13197;SDS011;6664;52.514;13.440;2023-09-18T04:19:48;5.90;;;5.20;;
13197;SDS011;6664;52.514;13.440;2023-09-18T04:22:34;8.10;;;5.43;;
13197;SDS011;6664;52.514;13.440;2023-09-18T04:25:24;6.30;;;5.70;;
13197;SDS011;6664;52.514;13.440;2023-09-18T04:28:12;7.20;;;6.03;;
13197;SDS011;6664;52.514;13.440;2023-09-18T04:30:59;6.40;;;5.80;;
13197;SDS011;6664;52.514;13.440;2023-09-18T04:33:44;6.60;;;6.00;;
13197;SDS011;6664;52.514;13.440;2023-09-18T04:36:31;6.53;;;5.63;;
13197;SDS011;6664;52.514;13.440;2023-09-18T04:39:18;6.73;;;6.03;;
13197;SDS011;6664;52.514;13.440;2023-09-18T04:42:04;7.23;;;5.63;;
13197;SDS011;6664;52.514;13.440;2023-09-18T04:44:50;6.10;;;5.50;;
13197;SDS011;6664;52.514;13.440;2023-09-18T04:47:38;9.73;;;6.47;;
13197;SDS011;6664;52.514;13.440;2023-09-18T04:50:24;7.53;;;5.40;;
13197;SDS011;6664;52.514;13.440;2023-09-18T04:53:12;6.90;;;5.53;;
13197;SDS011;6664;52.514;13.440;2023-09-18T04:55:58;9.00;;;5.87;;
13197;SDS011;6664;52.514;13.440;2023-09-18T04:58:46;7.60;;;5.73;;
13197;SDS011;6664;52.514;13.440;2023-09-18T05:01:34;7.00;;;6.30;;
13197;SDS011;6664;52.514;13.440;2023-09-18T05:04:19;6.20;;;5.60;;
13197;SDS011;6664;52.514;13.440;2023-09-18T05:07:07;7.27;;;6.17;;
13197;SDS011;6664;52.514;13.440;2023-09-18T05:09:54;9.43;;;5.70;;
13197;SDS011;6664;52.514;13.440;2023-09-18T05:12:39;7.57;;;5.73;;
13197;SDS011;6664;52.514;13.440;2023-09-18T05:15:28;7.33;;;5.70;;
13197;SDS011;6664;52.514;13.440;2023-09-18T05:18:14;5.50;;;5.00;;
13197;SDS011;6664;52.514;13.440;2023-09-18T05:21:01;7.20;;;4.97;;
13197;SDS011;6664;52.514;13.440;2023-09-18T05:23:49;6.57;;;5.83;;
13197;SDS011;6664;52.514;13.440;2023-09-18T05:26:35;7.97;;;6.10;;
13197;SDS011;6664;52.514;13.440;2023-09-18T05:29:23;7.03;;;5.77;;
13197;SDS011;6664;52.514;13.440;2023-09-18T05:32:11;6.23;;;5.53;;
13197;SDS011;6664;52.514;13.440;2023-09-18T05:34:59;11.60;;;5.83;;
13197;SDS011;6664;52.514;13.440;2023-09-18T05:37:50;7.53;;;5.70;;
13197;SDS011;6664;52.514;13.440;2023-09-18T05:40:36;9.03;;;6.20;;
13197;SDS011;6664;52.514;13.440;2023-09-18T05:43:22;6.53;;;5.93;;
13197;SDS011;6664;52.514;13.440;2023-09-18T05:46:08;10.07;;;6.33;;
13197;SDS011;6664;52.514;13.440;2023-09-18T05:48:54;10.50;;;5.80;;
13197;SDS011;6664;52.514;13.440;2023-09-18T05:51:41;6.10;;;5.50;;
13197;SDS011;6664;52.514;13.440;2023-09-18T05:54:29;6.27;;;5.27;;
13197;SDS011;6664;52.514;13.440;2023-09-18T05:57:15;5.53;;;5.10;;
13197;SDS011;6664;52.514;13.440;2023-09-18T06:00:03;5.73;;;5.13;;
13197;SDS011;6664;52.514;13.440;2023-09-18T06:02:50;5.80;;;5.33;;
13197;SDS011;6664;52.514;13.440;2023-09-18T06:05:36;8.80;;;5.00;;
13197;SDS011;6664;52.514;13.440;2023-09-18T06:08:21;11.53;;;6.27;;
13197;SDS011;6664;52.514;13.440;2023-09-18T06:11:08;5.93;;;5.30;;
13197;SDS011;6664;52.514;13.440;2023-09-18T06:13:54;6.33;;;5.70;;
13197;SDS011;6664;52.514;13.440;2023-09-18T06:16:39;9.97;;;5.10;;
13197;SDS011;6664;52.514;13.440;2023-09-18T06:19:25;4.80;;;4.30;;
13197;SDS011;6664;52.514;13.440;2023-09-18T06:22:11;5.30;;;4.80;;
13197;SDS011;6664;52.514;13.440;2023-09-18T06:24:57;12.10;;;6.40;;
13197;SDS011;6664;52.514;13.440;2023-09-18T06:27:47;5.80;;;5.20;;
13197;SDS011;6664;52.514;13.440;2023-09-18T06:30:33;8.37;;;5.73;;
13197;SDS011;6664;52.514;13.440;2023-09-18T06:33:20;6.80;;;4.37;;
13197;SDS011;6664;52.514;13.440;2023-09-18T06:36:05;6.60;;;5.80;;
13197;SDS011;6664;52.514;13.440;2023-09-18T06:38:53;5.73;;;5.23;;
13197;SDS011;6664;52.514;13.440;2023-09-18T06:41:39;5.73;;;5.00;;
13197;SDS011;6664;52.514;13.440;2023-09-18T06:44:25;5.23;;;4.73;;
13197;SDS011;6664;52.514;13.440;2023-09-18T06:47:11;6.40;;;4.70;;
13197;SDS011;6664;52.514;13.440;2023-09-18T06:49:57;5.30;;;4.80;;
13197;SDS011;6664;52.514;13.440;2023-09-18T06:52:43;8.60;;;5.00;;
13197;SDS011;6664;52.514;13.440;2023-09-18T06:55:31;11.83;;;5.80;;
13197;SDS011;6664;52.514;13.440;2023-09-18T06:58:17;6.53;;;5.80;;
13197;SDS011;6664;52.514;13.440;2023-09-18T07:01:02;5.70;;;5.10;;
13197;SDS011;6664;52.514;13.440;2023-09-18T07:03:51;8.00;;;5.60;;
13197;SDS011;6664;52.514;13.440;2023-09-18T07:06:37;6.27;;;4.40;;
13197;SDS011;6664;52.514;13.440;2023-09-18T07:09:23;4.97;;;4.57;;
13197;SDS011;6664;52.514;13.440;2023-09-18T07:12:11;4.90;;;4.50;;
13197;SDS011;6664;52.514;13.440;2023-09-18T07:14:58;6.33;;;5.60;;
13197;SDS011;6664;52.514;13.440;2023-09-18T07:17:51;5.23;;;4.70;;
13197;SDS011;6664;52.514;13.440;2023-09-18T07:20:37;10.03;;;3.80;;
13197;SDS011;6664;52.514;13.440;2023-09-18T07:23:25;4.87;;;4.47;;
13197;SDS011;6664;52.514;13.440;2023-09-18T07:26:10;4.80;;;4.23;;
13197;SDS011;6664;52.514;13.440;2023-09-18T07:28:56;11.63;;;5.53;;
13197;SDS011;6664;52.514;13.440;2023-09-18T07:31:47;11.60;;;4.87;;
13197;SDS011;6664;52.514;13.440;2023-09-18T07:34:32;5.00;;;4.40;;
13197;SDS011;6664;52.514;13.440;2023-09-18T07:37:18;4.57;;;4.17;;
13197;SDS011;6664;52.514;13.440;2023-09-18T07:40:05;6.20;;;5.60;;
13197;SDS011;6664;52.514;13.440;2023-09-18T07:42:51;7.67;;;4.87;;
13197;SDS011;6664;52.514;13.440;2023-09-18T07:45:38;4.50;;;4.17;;
13197;SDS011;6664;52.514;13.440;2023-09-18T07:48:27;6.03;;;4.60;;
13197;SDS011;6664;52.514;13.440;2023-09-18T07:51:15;5.20;;;4.63;;
13197;SDS011;6664;52.514;13.440;2023-09-18T07:54:03;9.83;;;3.80;;
13197;SDS011;6664;52.514;13.440;2023-09-18T07:56:48;6.43;;;4.70;;
13197;SDS011;6664;52.514;13.440;2023-09-18T07:59:36;4.37;;;4.07;;
13197;SDS011;6664;52.514;13.440;2023-09-18T08:02:22;5.30;;;4.27;;
13197;SDS011;6664;52.514;13.440;2023-09-18T08:05:07;4.80;;;4.40;;
13197;SDS011;6664;52.514;13.440;2023-09-18T08:07:54;4.70;;;4.30;;
13197;SDS011;6664;52.514;13.440;2023-09-18T08:10:44;4.77;;;4.00;;
13197;SDS011;6664;52.514;13.440;2023-09-18T08:13:31;5.10;;;3.60;;
13197;SDS011;6664;52.514;13.440;2023-09-18T08:16:17;3.97;;;3.27;;
13197;SDS011;6664;52.514;13.440;2023-09-18T08:19:03;4.27;;;3.73;;
13197;SDS011;6664;52.514;13.440;2023-09-18T08:21:54;3.30;;;3.10;;
13197;SDS011;6664;52.514;13.440;2023-09-18T08:24:45;5.30;;;4.00;;
13197;SDS011;6664;52.514;13.440;2023-09-18T08:27:31;11.23;;;3.47;;
13197;SDS011;6664;52.514;13.440;2023-09-18T08:30:16;4.40;;;4.00;;
13197;SDS011;6664;52.514;13.440;2023-09-18T08:33:06;3.30;;;3.10;;
13197;SDS011;6664;52.514;13.440;2023-09-18T08:35:54;3.70;;;3.40;;
13197;SDS011;6664;52.514;13.440;2023-09-18T08:38:39;4.03;;;3.73;;
13197;SDS011;6664;52.514;13.440;2023-09-18T08:41:29;5.27;;;3.53;;
13197;SDS011;6664;52.514;13.440;2023-09-18T08:44:16;3.90;;;3.60;;
13197;SDS011;6664;52.514;13.440;2023-09-18T08:47:03;4.87;;;4.37;;
13197;SDS011;6664;52.514;13.440;2023-09-18T08:49:53;3.90;;;3.60;;
13197;SDS011;6664;52.514;13.440;2023-09-18T08:52:41;3.40;;;3.10;;
13197;SDS011;6664;52.514;13.440;2023-09-18T08:55:27;6.50;;;4.07;;
13197;SDS011;6664;52.514;13.440;2023-09-18T08:58:14;8.60;;;3.40;;
13197;SDS011;6664;52.514;13.440;2023-09-18T09:01:05;9.53;;;4.10;;
13197;SDS011;6664;52.514;13.440;2023-09-18T09:03:55;4.53;;;3.93;;
13197;SDS011;6664;52.514;13.440;2023-09-18T09:06:40;3.30;;;3.00;;
13197;SDS011;6664;52.514;13.440;2023-09-18T09:09:26;5.43;;;3.73;;
13197;SDS011;6664;52.514;13.440;2023-09-18T09:12:12;3.03;;;2.83;;
13197;SDS011;6664;52.514;13.440;2023-09-18T09:15:03;7.73;;;3.03;;
13197;SDS011;6664;52.514;13.440;2023-09-18T09:17:51;5.50;;;3.30;;
13197;SDS011;6664;52.514;13.440;2023-09-18T09:20:59;5.10;;;3.73;;
13197;SDS011;6664;52.514;13.440;2023-09-18T09:23:47;3.00;;;2.63;;
13197;SDS011;6664;52.514;13.440;2023-09-18T09:26:38;3.00;;;2.70;;
13197;SDS011;6664;52.514;13.440;2023-09-18T09:29:27;3.30;;;2.60;;
13197;SDS011;6664;52.514;13.440;2023-09-18T09:32:14;4.27;;;3.33;;
13197;SDS011;6664;52.514;13.440;2023-09-18T09:35:04;3.57;;;3.17;;
13197;SDS011;6664;52.514;13.440;2023-09-18T09:37:52;3.10;;;2.80;;
13197;SDS011;6664;52.514;13.440;2023-09-18T09:40:41;3.20;;;3.00;;
13197;SDS011;6664;52.514;13.440;2023-09-18T09:43:30;3.60;;;2.80;;
13197;SDS011;6664;52.514;13.440;2023-09-18T09:46:17;3.43;;;3.20;;
13197;SDS011;6664;52.514;13.440;2023-09-18T09:49:04;2.80;;;2.60;;
13197;SDS011;6664;52.514;13.440;2023-09-18T09:51:50;2.50;;;2.30;;
13197;SDS011;6664;52.514;13.440;2023-09-18T09:54:35;2.60;;;2.40;;
13197;SDS011;6664;52.514;13.440;2023-09-18T09:57:26;2.73;;;2.53;;
13197;SDS011;6664;52.514;13.440;2023-09-18T10:00:14;5.80;;;2.50;;
13197;SDS011;6664;52.514;13.440;2023-09-18T10:03:12;3.20;;;3.00;;
13197;SDS011;6664;52.514;13.440;2023-09-18T10:06:00;2.93;;;2.50;;
13197;SDS011;6664;52.514;13.440;2023-09-18T10:08:46;3.00;;;2.80;;
13197;SDS011;6664;52.514;13.440;2023-09-18T10:11:32;4.70;;;2.60;;
13197;SDS011;6664;52.514;13.440;2023-09-18T10:14:29;4.30;;;2.73;;
13197;SDS011;6664;52.514;13.440;2023-09-18T10:17:31;2.80;;;2.60;;
13197;SDS011;6664;52.514;13.440;2023-09-18T10:20:19;4.70;;;3.00;;
13197;SDS011;6664;52.514;13.440;2023-09-18T10:23:05;6.40;;;2.67;;
13197;SDS011;6664;52.514;13.440;2023-09-18T10:25:55;3.10;;;2.83;;
13197;SDS011;6664;52.514;13.440;2023-09-18T10:28:44;2.60;;;2.40;;
13197;SDS011;6664;52.514;13.440;2023-09-18T10:31:33;3.17;;;2.93;;
13197;SDS011;6664;52.514;13.440;2023-09-18T10:34:22;3.80;;;2.83;;
13197;SDS011;6664;52.514;13.440;2023-09-18T10:37:11;2.63;;;2.43;;
13197;SDS011;6664;52.514;13.440;2023-09-18T10:39:57;2.83;;;2.63;;
13197;SDS011;6664;52.514;13.440;2023-09-18T10:42:45;2.83;;;2.63;;
13197;SDS011;6664;52.514;13.440;2023-09-18T10:45:35;2.70;;;2.53;;
13197;SDS011;6664;52.514;13.440;2023-09-18T10:48:21;2.87;;;2.67;;
13197;SDS011;6664;52.514;13.440;2023-09-18T10:51:08;2.97;;;2.63;;
13197;SDS011;6664;52.514;13.440;2023-09-18T10:53:56;2.97;;;2.77;;
13197;SDS011;6664;52.514;13.440;2023-09-18T10:56:42;3.63;;;2.33;;
13197;SDS011;6664;52.514;13.440;2023-09-18T10:59:28;2.70;;;2.50;;
13197;SDS011;6664;52.514;13.440;2023-09-18T11:02:14;3.03;;;2.73;;
13197;SDS011;6664;52.514;13.440;2023-09-18T11:05:04;4.13;;;2.60;;
13197;SDS011;6664;52.514;13.440;2023-09-18T11:07:58;9.60;;;3.03;;
13197;SDS011;6664;52.514;13.440;2023-09-18T11:11:15;13.63;;;3.23;;
13197;SDS011;6664;52.514;13.440;2023-09-18T11:14:05;7.40;;;2.83;;
13197;SDS011;6664;52.514;13.440;2023-09-18T11:16:55;5.63;;;2.57;;
13197;SDS011;6664;52.514;13.440;2023-09-18T11:19:41;5.50;;;3.03;;
13197;SDS011;6664;52.514;13.440;2023-09-18T11:22:31;4.30;;;2.70;;
13197;SDS011;6664;52.514;13.440;2023-09-18T11:28:27;2.77;;;2.57;;
13197;SDS011;6664;52.514;13.440;2023-09-18T11:31:19;4.57;;;2.57;;
13197;SDS011;6664;52.514;13.440;2023-09-18T11:34:14;5.30;;;3.00;;
13197;SDS011;6664;52.514;13.440;2023-09-18T11:37:20;4.80;;;2.57;;
13197;SDS011;6664;52.514;13.440;2023-09-18T11:40:10;2.80;;;2.50;;
13197;SDS011;6664;52.514;13.440;2023-09-18T11:46:17;3.20;;;2.97;;
13197;SDS011;6664;52.514;13.440;2023-09-18T11:49:12;2.87;;;2.67;;
13197;SDS011;6664;52.514;13.440;2023-09-18T11:51:58;3.50;;;3.20;;
13197;SDS011;6664;52.514;13.440;2023-09-18T11:54:47;3.27;;;2.97;;
13197;SDS011;6664;52.514;13.440;2023-09-18T11:57:36;3.33;;;2.60;;
13197;SDS011;6664;52.514;13.440;2023-09-18T12:00:22;3.13;;;2.83;;
13197;SDS011;6664;52.514;13.440;2023-09-18T12:03:16;8.73;;;3.20;;
13197;SDS011;6664;52.514;13.440;2023-09-18T12:06:16;2.77;;;2.57;;
13197;SDS011;6664;52.514;13.440;2023-09-18T12:09:05;3.30;;;3.10;;
13197;SDS011;6664;52.514;13.440;2023-09-18T12:11:54;4.07;;;2.70;;
13197;SDS011;6664;52.514;13.440;2023-09-18T12:14:44;2.97;;;2.73;;
13197;SDS011;6664;52.514;13.440;2023-09-18T12:17:30;3.90;;;3.30;;
13197;SDS011;6664;52.514;13.440;2023-09-18T12:20:16;8.23;;;2.73;;
13197;SDS011;6664;52.514;13.440;2023-09-18T12:23:08;3.30;;;3.00;;
13197;SDS011;6664;52.514;13.440;2023-09-18T12:25:59;3.17;;;2.77;;
13197;SDS011;6664;52.514;13.440;2023-09-18T12:28:47;5.80;;;2.53;;
13197;SDS011;6664;52.514;13.440;2023-09-18T12:31:34;11.77;;;2.73;;
13197;SDS011;6664;52.514;13.440;2023-09-18T12:34:21;2.63;;;2.43;;
13197;SDS011;6664;52.514;13.440;2023-09-18T12:37:08;2.73;;;2.53;;
13197;SDS011;6664;52.514;13.440;2023-09-18T12:39:55;2.70;;;2.47;;
13197;SDS011;6664;52.514;13.440;2023-09-18T12:42:41;3.63;;;3.10;;
13197;SDS011;6664;52.514;13.440;2023-09-18T12:45:26;3.77;;;2.77;;
13197;SDS011;6664;52.514;13.440;2023-09-18T12:48:14;6.63;;;2.53;;
13197;SDS011;6664;52.514;13.440;2023-09-18T12:51:06;3.13;;;2.83;;
13197;SDS011;6664;52.514;13.440;2023-09-18T12:53:59;3.97;;;3.43;;
13197;SDS011;6664;52.514;13.440;2023-09-18T12:56:46;3.30;;;3.10;;
13197;SDS011;6664;52.514;13.440;2023-09-18T12:59:32;3.07;;;2.87;;
13197;SDS011;6664;52.514;13.440;2023-09-18T13:02:21;3.63;;;2.80;;
13197;SDS011;6664;52.514;13.440;2023-09-18T13:05:13;3.13;;;2.80;;
13197;SDS011;6664;52.514;13.440;2023-09-18T13:08:04;3.77;;;2.40;;
13197;SDS011;6664;52.514;13.440;2023-09-18T13:10:51;3.00;;;2.70;;
13197;SDS011;6664;52.514;13.440;2023-09-18T13:13:37;6.53;;;3.80;;
13197;SDS011;6664;52.514;13.440;2023-09-18T13:16:25;3.07;;;2.77;;
13197;SDS011;6664;52.514;13.440;2023-09-18T13:19:14;5.23;;;3.13;;
13197;SDS011;6664;52.514;13.440;2023-09-18T13:22:02;5.80;;;3.00;;
13197;SDS011;6664;52.514;13.440;2023-09-18T13:24:54;3.80;;;3.00;;
13197;SDS011;6664;52.514;13.440;2023-09-18T13:27:41;4.33;;;2.63;;
13197;SDS011;6664;52.514;13.440;2023-09-18T13:30:27;7.30;;;3.07;;
13197;SDS011;6664;52.514;13.440;2023-09-18T13:33:15;5.10;;;4.47;;
13197;SDS011;6664;52.514;13.440;2023-09-18T13:36:01;5.13;;;3.30;;
13197;SDS011;6664;52.514;13.440;2023-09-18T13:38:47;6.03;;;2.53;;
13197;SDS011;6664;52.514;13.440;2023-09-18T13:41:33;5.17;;;3.13;;
13197;SDS011;6664;52.514;13.440;2023-09-18T13:44:18;5.40;;;3.00;;
13197;SDS011;6664;52.514;13.440;2023-09-18T13:47:09;10.13;;;3.17;;
13197;SDS011;6664;52.514;13.440;2023-09-18T13:49:57;2.80;;;2.60;;
13197;SDS011;6664;52.514;13.440;2023-09-18T13:52:44;7.07;;;3.00;;
13197;SDS011;6664;52.514;13.440;2023-09-18T13:55:30;3.57;;;3.27;;
13197;SDS011;6664;52.514;13.440;2023-09-18T13:58:18;2.80;;;2.60;;
13197;SDS011;6664;52.514;13.440;2023-09-18T14:01:07;3.63;;;3.33;;
13197;SDS011;6664;52.514;13.440;2023-09-18T14:03:53;3.03;;;2.73;;
13197;SDS011;6664;52.514;13.440;2023-09-18T14:06:39;2.83;;;2.60;;
13197;SDS011;6664;52.514;13.440;2023-09-18T14:09:25;5.10;;;2.60;;
13197;SDS011;6664;52.514;13.440;2023-09-18T14:12:11;6.47;;;2.40;;
13197;SDS011;6664;52.514;13.440;2023-09-18T14:14:57;7.90;;;2.03;;
13197;SDS011;6664;52.514;13.440;2023-09-18T14:17:42;7.50;;;2.40;;
13197;SDS011;6664;52.514;13.440;2023-09-18T14:20:28;6.67;;;2.43;;
13197;SDS011;6664;52.514;13.440;2023-09-18T14:23:14;3.20;;;2.33;;
13197;SDS011;6664;52.514;13.440;2023-09-18T14:25:59;2.57;;;2.37;;
13197;SDS011;6664;52.514;13.440;2023-09-18T14:28:45;3.50;;;2.13;;
13197;SDS011;6664;52.514;13.440;2023-09-18T14:31:31;3.10;;;2.80;;
13197;SDS011;6664;52.514;13.440;2023-09-18T14:34:17;5.43;;;3.03;;
13197;SDS011;6664;52.514;13.440;2023-09-18T14:37:03;2.57;;;2.37;;
13197;SDS011;6664;52.514;13.440;2023-09-18T14:39:48;3.90;;;2.17;;
13197;SDS011;6664;52.514;13.440;2023-09-18T14:42:34;5.13;;;3.37;;
13197;SDS011;6664;52.514;13.440;2023-09-18T14:45:21;4.83;;;3.03;;
13197;SDS011;6664;52.514;13.440;2023-09-18T14:48:06;4.93;;;2.50;;
13197;SDS011;6664;52.514;13.440;2023-09-18T14:50:55;4.13;;;2.53;;
13197;SDS011;6664;52.514;13.440;2023-09-18T14:53:44;3.73;;;2.63;;
13197;SDS011;6664;52.514;13.440;2023-09-18T14:56:32;2.63;;;2.43;;
13197;SDS011;6664;52.514;13.440;2023-09-18T14:59:20;3.20;;;2.40;;
13197;SDS011;6664;52.514;13.440;2023-09-18T15:02:25;2.37;;;2.13;;
13197;SDS011;6664;52.514;13.440;2023-09-18T15:05:15;2.90;;;1.87;;
13197;SDS011;6664;52.514;13.440;2023-09-18T15:08:03;7.63;;;2.03;;
13197;SDS011;6664;52.514;13.440;2023-09-18T15:10:51;2.37;;;2.17;;
13197;SDS011;6664;52.514;13.440;2023-09-18T15:13:37;3.37;;;2.00;;
13197;SDS011;6664;52.514;13.440;2023-09-18T15:16:23;4.37;;;2.00;;
13197;SDS011;6664;52.514;13.440;2023-09-18T15:19:09;4.30;;;2.67;;
13197;SDS011;6664;52.514;13.440;2023-09-18T15:21:55;2.07;;;1.93;;
13197;SDS011;6664;52.514;13.440;2023-09-18T15:24:42;4.03;;;2.00;;
13197;SDS011;6664;52.514;13.440;2023-09-18T15:27:28;3.60;;;2.20;;
13197;SDS011;6664;52.514;13.440;2023-09-18T15:30:14;2.90;;;2.17;;
13197;SDS011;6664;52.514;13.440;2023-09-18T15:33:01;4.00;;;1.83;;
13197;SDS011;6664;52.514;13.440;2023-09-18T15:35:49;4.33;;;1.90;;
13197;SDS011;6664;52.514;13.440;2023-09-18T15:38:36;9.93;;;2.07;;
13197;SDS011;6664;52.514;13.440;2023-09-18T15:41:22;3.57;;;2.13;;
13197;SDS011;6664;52.514;13.440;2023-09-18T15:44:07;2.70;;;2.50;;
13197;SDS011;6664;52.514;13.440;2023-09-18T15:46:55;4.37;;;1.80;;
13197;SDS011;6664;52.514;13.440;2023-09-18T15:49:41;2.17;;;1.97;;
13197;SDS011;6664;52.514;13.440;2023-09-18T15:52:28;2.87;;;1.87;;
13197;SDS011;6664;52.514;13.440;2023-09-18T15:55:14;4.13;;;1.83;;
13197;SDS011;6664;52.514;13.440;2023-09-18T15:58:02;3.47;;;1.90;;
13197;SDS011;6664;52.514;13.440;2023-09-18T16:00:53;3.23;;;1.87;;
13197;SDS011;6664;52.514;13.440;2023-09-18T16:03:39;2.43;;;2.00;;
13197;SDS011;6664;52.514;13.440;2023-09-18T16:06:32;2.90;;;2.20;;
13197;SDS011;6664;52.514;13.440;2023-09-18T16:09:19;5.10;;;2.07;;
13197;SDS011;6664;52.514;13.440;2023-09-18T16:12:05;2.30;;;2.03;;
13197;SDS011;6664;52.514;13.440;2023-09-18T16:14:51;2.13;;;1.73;;
13197;SDS011;6664;52.514;13.440;2023-09-18T16:17:40;15.43;;;2.40;;
13197;SDS011;6664;52.514;13.440;2023-09-18T16:20:29;2.20;;;2.10;;
13197;SDS011;6664;52.514;13.440;2023-09-18T16:23:16;3.07;;;2.20;;
13197;SDS011;6664;52.514;13.440;2023-09-18T16:26:01;5.50;;;2.53;;
13197;SDS011;6664;52.514;13.440;2023-09-18T16:28:48;5.77;;;2.07;;
13197;SDS011;6664;52.514;13.440;2023-09-18T16:31:33;3.40;;;2.00;;
13197;SDS011;6664;52.514;13.440;2023-09-18T16:34:20;4.63;;;2.80;;
13197;SDS011;6664;52.514;13.440;2023-09-18T16:37:08;4.53;;;3.33;;
13197;SDS011;6664;52.514;13.440;2023-09-18T16:39:53;6.60;;;2.93;;
13197;SDS011;6664;52.514;13.440;2023-09-18T16:42:39;6.77;;;3.20;;
13197;SDS011;6664;52.514;13.440;2023-09-18T16:45:25;5.30;;;2.63;;
13197;SDS011;6664;52.514;13.440;2023-09-18T16:48:14;6.53;;;2.70;;
13197;SDS011;6664;52.514;13.440;2023-09-18T16:51:00;4.67;;;2.47;;
13197;SDS011;6664;52.514;13.440;2023-09-18T16:53:51;3.63;;;2.37;;
13197;SDS011;6664;52.514;13.440;2023-09-18T16:56:39;5.37;;;2.70;;